createdAt,value
2022-11-16T00:02:19.803Z,65.53
2022-11-16T00:04:49.119Z,65.72
2022-11-16T00:07:18.800Z,65.87
2022-11-16T00:09:48.936Z,66.17
2022-11-16T00:12:18.271Z,66.25
2022-11-16T00:14:47.564Z,66.44
2022-11-16T00:17:19.741Z,66.54
2022-11-16T00:19:49.902Z,66.64
2022-11-16T00:22:19.232Z,66.79
2022-11-16T00:24:48.899Z,66.91
2022-11-16T00:27:18.090Z,67.10
2022-11-16T00:29:47.392Z,67.24
2022-11-16T00:32:16.571Z,67.37
2022-11-16T00:34:46.126Z,67.40
2022-11-16T00:37:15.597Z,67.55
2022-11-16T00:39:45.050Z,67.62
2022-11-16T00:42:14.217Z,67.79
2022-11-16T00:44:43.270Z,67.87
2022-11-16T00:47:12.483Z,67.84
2022-11-16T00:49:41.776Z,68.00
2022-11-16T00:52:10.998Z,68.00
2022-11-16T00:54:40.319Z,68.01
2022-11-16T00:57:09.831Z,68.06
2022-11-16T00:59:39.204Z,68.02
2022-11-16T01:02:08.566Z,68.18
2022-11-16T01:04:37.934Z,68.27
2022-11-16T01:07:07.180Z,68.45
2022-11-16T01:09:36.929Z,68.56
2022-11-16T01:12:13.864Z,68.61
2022-11-16T01:14:49.121Z,68.70
2022-11-16T01:17:19.653Z,68.76
2022-11-16T01:19:48.735Z,68.81
2022-11-16T01:22:18.382Z,68.87
2022-11-16T01:24:50.735Z,68.93
2022-11-16T01:27:20.311Z,69.10
2022-11-16T01:29:49.466Z,69.26
2022-11-16T01:32:18.730Z,69.32
2022-11-16T01:34:48.114Z,69.33
2022-11-16T01:37:18.100Z,69.35
2022-11-16T01:39:47.967Z,69.28
2022-11-16T01:42:27.315Z,69.20
2022-11-16T01:45:40.607Z,69.17
2022-11-16T01:48:12.879Z,69.18
2022-11-16T01:50:43.581Z,69.22
2022-11-16T01:53:15.675Z,69.25
2022-11-16T01:55:48.090Z,69.34
2022-11-16T01:58:24.277Z,69.47
2022-11-16T02:00:53.750Z,69.53
2022-11-16T02:03:23.624Z,69.56
2022-11-16T02:06:30.197Z,69.51
2022-11-16T02:09:42.349Z,69.66
2022-11-16T02:12:40.094Z,69.76
2022-11-16T02:15:33.671Z,69.86
2022-11-16T02:18:26.104Z,69.98
2022-11-16T02:21:37.631Z,70.08
2022-11-16T02:24:49.222Z,70.12
2022-11-16T02:27:36.634Z,70.29
2022-11-16T02:30:08.504Z,70.32
2022-11-16T02:33:01.939Z,70.44
2022-11-16T02:35:45.292Z,70.46
2022-11-16T02:38:26.587Z,70.58
2022-11-16T02:41:06.690Z,70.60
2022-11-16T02:43:50.542Z,70.61
2022-11-16T02:46:32.856Z,70.72
2022-11-16T02:49:08.632Z,70.67
2022-11-16T02:51:41.237Z,70.67
2022-11-16T02:54:19.572Z,70.79
2022-11-16T02:57:20.661Z,70.79
2022-11-16T02:59:56.280Z,70.69
2022-11-16T03:02:34.088Z,70.62
2022-11-16T03:05:34.912Z,70.55
2022-11-16T03:08:18.410Z,70.72
2022-11-16T03:11:13.293Z,70.60
2022-11-16T03:13:44.946Z,70.50
2022-11-16T03:16:45.644Z,70.47
2022-11-16T03:19:24.105Z,70.61
2022-11-16T03:22:24.512Z,70.60
2022-11-16T03:24:54.560Z,70.69
2022-11-16T03:28:04.894Z,70.76
2022-11-16T03:31:03.819Z,70.84
2022-11-16T03:33:51.647Z,70.93
2022-11-16T03:36:25.159Z,70.90
2022-11-16T03:38:57.094Z,70.93
2022-11-16T03:41:29.562Z,71.02
2022-11-16T03:44:00.383Z,71.01
2022-11-16T03:46:30.546Z,71.05
2022-11-16T03:49:02.426Z,71.10
2022-11-16T03:51:31.696Z,71.15
2022-11-16T03:54:01.275Z,71.11
2022-11-16T03:56:31.630Z,71.22
2022-11-16T03:59:01.354Z,71.34
2022-11-16T04:01:30.791Z,71.31
2022-11-16T04:04:00.307Z,71.35
2022-11-16T04:06:48.309Z,71.29
2022-11-16T04:09:35.935Z,71.25
2022-11-16T04:12:23.688Z,71.25
2022-11-16T04:15:11.516Z,71.34
2022-11-16T04:17:59.457Z,71.27
2022-11-16T04:20:47.384Z,71.38
2022-11-16T04:23:36.979Z,71.56
2022-11-16T04:26:13.448Z,71.60
2022-11-16T04:28:43.573Z,71.56
2022-11-16T04:31:31.306Z,71.60
2022-11-16T04:34:19.334Z,71.60
2022-11-16T04:37:07.144Z,71.66
2022-11-16T04:39:36.444Z,71.66
2022-11-16T04:42:15.777Z,71.70
2022-11-16T04:45:03.172Z,71.77
2022-11-16T04:47:32.615Z,71.82
2022-11-16T04:50:01.995Z,71.80
2022-11-16T04:52:31.466Z,71.97
2022-11-16T04:55:00.636Z,72.12
2022-11-16T04:57:29.936Z,72.18
2022-11-16T05:00:00.146Z,72.23
2022-11-16T05:02:29.699Z,72.19
2022-11-16T05:04:59.011Z,72.05
2022-11-16T05:07:28.572Z,71.97
2022-11-16T05:09:58.024Z,71.85
2022-11-16T05:12:29.706Z,71.96
2022-11-16T05:14:59.590Z,71.94
2022-11-16T05:17:30.217Z,72.15
2022-11-16T05:20:19.060Z,72.13
2022-11-16T05:22:56.696Z,72.07
2022-11-16T05:25:28.555Z,72.02
2022-11-16T05:28:04.204Z,72.03
2022-11-16T05:30:33.346Z,71.94
2022-11-16T05:33:07.438Z,71.94
2022-11-16T05:35:36.865Z,72.00
2022-11-16T05:38:08.458Z,72.00
2022-11-16T05:40:37.625Z,71.97
2022-11-16T05:43:06.821Z,71.92
2022-11-16T05:45:36.012Z,72.07
2022-11-16T05:48:05.565Z,72.14
2022-11-16T05:50:38.559Z,72.12
2022-11-16T05:53:10.867Z,72.20
2022-11-16T05:55:40.161Z,72.14
2022-11-16T05:58:09.396Z,72.20
2022-11-16T06:00:40.506Z,72.16
2022-11-16T06:03:09.799Z,72.18
2022-11-16T06:05:40.813Z,72.10
2022-11-16T06:08:10.449Z,72.06
2022-11-16T06:10:39.880Z,72.02
2022-11-16T06:13:09.195Z,72.02
2022-11-16T06:15:41.856Z,72.17
2022-11-16T06:18:11.733Z,72.22
2022-11-16T06:20:42.207Z,72.25
2022-11-16T06:23:11.568Z,72.29
2022-11-16T06:25:41.769Z,72.37
2022-11-16T06:28:11.499Z,72.40
2022-11-16T06:30:42.245Z,72.49
2022-11-16T06:33:11.628Z,72.61
2022-11-16T06:35:40.967Z,72.67
2022-11-16T06:38:10.201Z,72.70
2022-11-16T06:40:40.886Z,72.75
2022-11-16T06:43:10.166Z,72.64
2022-11-16T06:45:40.463Z,72.52
2022-11-16T06:48:10.564Z,72.45
2022-11-16T06:50:40.061Z,72.46
2022-11-16T06:55:55.488Z,72.48
2022-11-16T06:58:24.790Z,72.48
2022-11-16T07:00:53.955Z,72.57
2022-11-16T07:03:23.230Z,72.60
2022-11-16T07:05:52.545Z,72.61
2022-11-16T07:08:21.926Z,72.60
2022-11-16T07:10:51.235Z,72.59
2022-11-16T07:13:20.366Z,72.61
2022-11-16T07:15:49.801Z,72.51
2022-11-16T07:18:19.317Z,72.34
2022-11-16T07:20:48.722Z,72.29
2022-11-16T07:23:17.933Z,72.39
2022-11-16T07:25:48.365Z,72.47
2022-11-16T07:28:17.931Z,72.50
2022-11-16T07:30:47.965Z,72.50
2022-11-16T07:33:18.350Z,72.52
2022-11-16T07:35:47.522Z,72.59
2022-11-16T07:38:18.173Z,72.63
2022-11-16T07:40:47.656Z,72.65
2022-11-16T07:43:16.929Z,72.60
2022-11-16T07:45:46.205Z,72.63
2022-11-16T07:48:15.365Z,72.71
2022-11-16T07:50:44.731Z,72.69
2022-11-16T07:53:13.767Z,72.67
2022-11-16T07:55:43.032Z,72.75
2022-11-16T07:58:13.332Z,72.75
2022-11-16T08:00:42.670Z,72.68
2022-11-16T08:03:12.065Z,72.69
2022-11-16T08:05:41.597Z,72.56
2022-11-16T08:08:11.192Z,72.64
2022-11-16T08:10:40.763Z,72.63
2022-11-16T08:13:10.055Z,72.46
2022-11-16T08:15:39.297Z,72.42
2022-11-16T08:18:08.801Z,72.57
2022-11-16T08:20:38.093Z,72.61
2022-11-16T08:23:07.291Z,72.75
2022-11-16T08:25:36.568Z,72.82
2022-11-16T08:28:05.980Z,72.85
2022-11-16T08:30:35.498Z,73.04
2022-11-16T08:33:04.653Z,73.10
2022-11-16T08:35:35.011Z,73.05
2022-11-16T08:38:04.672Z,73.02
2022-11-16T08:40:34.551Z,73.20
2022-11-16T08:43:03.978Z,73.20
2022-11-16T08:45:35.171Z,73.09
2022-11-16T08:48:04.816Z,73.22
2022-11-16T08:50:55.539Z,73.36
2022-11-16T08:53:24.186Z,73.30
2022-11-16T08:55:53.480Z,73.27
2022-11-16T08:58:22.562Z,73.32
2022-11-16T09:00:52.552Z,73.42
2022-11-16T09:03:21.800Z,73.32
2022-11-16T09:05:51.109Z,73.19
2022-11-16T09:08:20.357Z,73.20
2022-11-16T09:10:49.726Z,73.25
2022-11-16T09:13:19.018Z,73.44
2022-11-16T09:15:48.313Z,73.54
2022-11-16T09:18:17.742Z,73.58
2022-11-16T09:20:46.847Z,73.36
2022-11-16T09:23:19.732Z,73.42
2022-11-16T09:25:55.175Z,73.27
2022-11-16T09:28:25.055Z,73.12
2022-11-16T09:30:54.289Z,72.97
2022-11-16T09:33:23.548Z,72.90
2022-11-16T09:35:52.659Z,72.95
2022-11-16T09:38:40.610Z,73.10
2022-11-16T09:41:16.915Z,73.10
2022-11-16T09:43:54.714Z,73.10
2022-11-16T09:46:59.859Z,73.23
2022-11-16T09:49:41.168Z,73.40
2022-11-16T09:52:45.674Z,73.47
2022-11-16T09:55:33.639Z,73.43
2022-11-16T09:58:14.917Z,73.53
2022-11-16T10:00:52.620Z,73.61
2022-11-16T10:03:21.886Z,73.56
2022-11-16T10:06:10.813Z,73.46
2022-11-16T10:08:51.220Z,73.46
2022-11-16T10:11:49.907Z,73.38
2022-11-16T10:14:45.510Z,73.28
2022-11-16T10:17:59.660Z,73.48
2022-11-16T10:30:19.744Z,73.96
2022-11-16T10:33:06.795Z,73.97
2022-11-16T10:35:48.072Z,73.84
2022-11-16T10:38:23.863Z,73.77
2022-11-16T10:41:05.105Z,73.70
2022-11-16T10:43:35.284Z,73.75
2022-11-16T10:46:21.456Z,73.85
2022-11-16T10:49:23.444Z,73.80
2022-11-16T10:51:52.751Z,73.91
2022-11-16T10:54:22.136Z,73.89
2022-11-16T10:57:05.907Z,73.86
2022-11-16T10:59:45.834Z,73.90
2022-11-16T11:02:36.915Z,73.90
2022-11-16T11:05:22.538Z,73.82
2022-11-16T11:08:25.260Z,73.75
2022-11-16T11:11:25.776Z,73.90
2022-11-16T11:14:13.817Z,73.90
2022-11-16T11:16:43.682Z,73.90
2022-11-16T11:19:31.208Z,73.83
2022-11-16T11:22:04.111Z,73.86
2022-11-16T11:24:49.272Z,73.93
2022-11-16T11:27:27.767Z,74.00
2022-11-16T11:29:59.815Z,74.12
2022-11-16T11:32:41.181Z,74.20
2022-11-16T11:35:30.963Z,74.07
2022-11-16T11:38:08.031Z,73.84
2022-11-16T11:40:38.080Z,73.69
2022-11-16T11:43:23.098Z,73.71
2022-11-16T11:46:47.281Z,73.57
2022-11-16T11:49:42.965Z,73.41
2022-11-16T11:52:32.422Z,73.40
2022-11-16T11:55:03.991Z,73.50
2022-11-16T11:57:44.300Z,73.55
2022-11-16T12:00:19.252Z,73.58
2022-11-16T12:03:04.049Z,73.54
2022-11-16T12:06:20.143Z,73.60
2022-11-16T12:09:38.067Z,73.71
2022-11-16T12:12:39.571Z,73.80
2022-11-16T12:15:31.925Z,73.72
2022-11-16T12:18:44.738Z,73.78
2022-11-16T12:21:30.716Z,73.80
2022-11-16T12:25:04.252Z,73.80
2022-11-16T12:27:53.229Z,73.84
2022-11-16T12:30:25.665Z,73.82
2022-11-16T12:33:25.994Z,73.90
2022-11-16T12:36:24.754Z,73.97
2022-11-16T12:39:30.655Z,73.95
2022-11-16T12:42:38.625Z,73.97
2022-11-16T12:45:19.826Z,73.81
2022-11-16T12:48:27.903Z,73.78
2022-11-16T12:51:30.486Z,73.66
2022-11-16T12:55:23.994Z,73.70
2022-11-16T12:58:33.094Z,73.70
2022-11-16T13:01:27.122Z,73.59
2022-11-16T13:04:02.345Z,73.51
2022-11-16T13:06:58.509Z,73.50
2022-11-16T13:09:38.682Z,73.54
2022-11-16T13:12:16.362Z,73.58
2022-11-16T13:14:57.598Z,73.72
2022-11-16T13:17:40.523Z,73.81
2022-11-16T13:20:27.691Z,73.89
2022-11-16T13:23:33.110Z,73.84
2022-11-16T13:26:25.408Z,73.83
2022-11-16T13:29:12.991Z,73.90
2022-11-16T13:32:18.754Z,74.07
2022-11-16T13:34:48.664Z,74.10
2022-11-16T13:37:39.277Z,74.18
2022-11-16T13:40:10.706Z,74.30
2022-11-16T13:43:18.395Z,74.33
2022-11-16T13:46:02.667Z,74.41
2022-11-16T13:48:39.408Z,74.39
2022-11-16T13:51:17.921Z,74.32
2022-11-16T13:56:52.891Z,74.05
2022-11-16T13:59:29.842Z,73.97
2022-11-16T14:02:41.765Z,73.99
2022-11-16T14:05:35.849Z,74.00
2022-11-16T14:08:48.453Z,74.06
2022-11-16T14:11:41.714Z,74.06
2022-11-16T14:14:15.123Z,74.02
2022-11-16T14:16:51.978Z,74.00
2022-11-16T14:19:48.570Z,74.06
2022-11-16T14:23:02.574Z,73.90
2022-11-16T14:25:54.188Z,74.05
2022-11-16T14:28:35.910Z,74.10
2022-11-16T14:31:25.290Z,74.12
2022-11-16T14:33:59.707Z,74.10
2022-11-16T14:36:49.488Z,74.17
2022-11-16T14:39:33.575Z,74.12
2022-11-16T14:42:08.497Z,74.08
2022-11-16T14:44:41.040Z,73.88
2022-11-16T14:47:29.961Z,73.83
2022-11-16T14:50:01.116Z,73.90
2022-11-16T14:52:39.143Z,74.02
2022-11-16T14:55:24.070Z,74.07
2022-11-16T14:58:09.497Z,74.04
2022-11-16T15:00:40.320Z,74.02
2022-11-16T15:03:13.933Z,74.00
2022-11-16T15:05:45.760Z,74.03
2022-11-16T15:08:23.562Z,73.93
2022-11-16T15:10:54.180Z,73.83
2022-11-16T15:13:28.074Z,73.94
2022-11-16T15:16:21.930Z,73.84
2022-11-16T15:19:03.655Z,73.71
2022-11-16T15:21:32.758Z,73.64
2022-11-16T15:24:28.759Z,73.53
2022-11-16T15:26:51.671Z,73.38
2022-11-16T15:29:23.959Z,73.21
2022-11-16T15:31:53.891Z,73.29
2022-11-16T15:34:23.274Z,73.24
2022-11-16T15:36:52.562Z,73.03
2022-11-16T15:39:25.436Z,72.85
2022-11-16T15:42:02.105Z,72.86
2022-11-16T15:44:34.648Z,72.81
2022-11-16T15:47:05.812Z,72.91
2022-11-16T15:49:40.009Z,72.87
2022-11-16T15:52:09.543Z,72.81
2022-11-16T15:54:58.375Z,72.75
2022-11-16T15:57:27.506Z,72.73
2022-11-16T15:59:59.140Z,72.81
2022-11-16T16:02:33.187Z,72.88
2022-11-16T16:05:02.509Z,72.91
2022-11-16T16:07:43.721Z,72.91
2022-11-16T16:10:22.081Z,73.08
2022-11-16T16:12:57.540Z,73.11
2022-11-16T16:15:37.789Z,73.02
2022-11-16T16:18:40.736Z,73.10
2022-11-16T16:21:15.541Z,73.10
2022-11-16T16:23:57.674Z,73.19
2022-11-16T16:26:27.167Z,73.05
2022-11-16T16:29:10.986Z,73.16
2022-11-16T16:31:40.616Z,73.05
2022-11-16T16:34:13.559Z,73.00
2022-11-16T16:36:43.037Z,72.99
2022-11-16T16:39:13.466Z,72.91
2022-11-16T16:41:42.795Z,72.86
2022-11-16T16:44:17.942Z,72.97
2022-11-16T16:46:47.518Z,73.02
2022-11-16T16:49:20.321Z,73.07
2022-11-16T16:51:50.688Z,73.13
2022-11-16T16:54:20.797Z,72.89
2022-11-16T16:56:51.617Z,73.03
2022-11-16T16:59:21.567Z,73.08
2022-11-16T17:01:57.450Z,73.12
2022-11-16T17:04:28.395Z,73.08
2022-11-16T17:07:01.339Z,72.98
2022-11-16T17:09:35.190Z,73.04
2022-11-16T17:12:06.818Z,72.99
2022-11-16T17:14:37.210Z,72.82
2022-11-16T17:17:07.675Z,72.86
2022-11-16T17:19:38.413Z,72.81
2022-11-16T17:22:12.383Z,72.72
2022-11-16T17:24:42.578Z,72.44
2022-11-16T17:27:12.725Z,72.50
2022-11-16T17:29:44.271Z,72.59
2022-11-16T17:32:17.819Z,72.57
2022-11-16T17:34:47.906Z,72.37
2022-11-16T17:37:26.891Z,72.32
2022-11-16T17:39:58.107Z,72.16
2022-11-16T17:42:28.059Z,72.41
2022-11-16T17:45:01.681Z,72.38
2022-11-16T17:47:41.003Z,72.45
2022-11-16T17:50:11.724Z,72.55
2022-11-16T17:52:42.247Z,72.74
2022-11-16T17:55:16.334Z,72.69
2022-11-16T17:57:47.125Z,72.55
2022-11-16T18:00:18.871Z,72.55
2022-11-16T18:02:49.002Z,72.61
2022-11-16T18:05:19.152Z,72.49
2022-11-16T18:07:48.692Z,72.72
2022-11-16T18:10:19.491Z,72.65
2022-11-16T18:12:49.134Z,72.62
2022-11-16T18:15:37.831Z,72.58
2022-11-16T18:18:08.718Z,72.62
2022-11-16T18:20:39.332Z,72.75
2022-11-16T18:23:08.886Z,72.70
2022-11-16T18:25:38.110Z,72.51
2022-11-16T18:28:07.755Z,72.41
2022-11-16T18:30:37.027Z,72.33
2022-11-16T18:33:06.413Z,72.37
2022-11-16T18:35:36.047Z,72.68
2022-11-16T18:38:07.979Z,72.84
2022-11-16T18:40:37.155Z,72.82
2022-11-16T18:43:06.530Z,72.83
2022-11-16T18:45:35.785Z,72.87
2022-11-16T18:48:05.397Z,73.14
2022-11-16T18:50:35.821Z,73.35
2022-11-16T18:53:05.473Z,73.51
2022-11-16T18:55:34.714Z,73.62
2022-11-16T18:58:09.487Z,73.75
2022-11-16T19:00:52.203Z,73.89
2022-11-16T19:03:22.123Z,74.16
2022-11-16T19:06:08.610Z,74.30
2022-11-16T19:08:40.455Z,74.46
2022-11-16T19:11:16.989Z,74.68
2022-11-16T19:13:46.789Z,74.55
2022-11-16T19:16:16.176Z,74.91
2022-11-16T19:18:45.459Z,74.92
2022-11-16T19:21:19.500Z,75.03
2022-11-16T19:23:52.860Z,75.01
2022-11-16T19:26:25.970Z,75.02
2022-11-16T19:28:56.595Z,75.25
2022-11-16T19:31:31.845Z,75.21
2022-11-16T19:34:08.285Z,75.22
2022-11-16T19:36:38.667Z,75.40
2022-11-16T19:39:07.947Z,75.37
2022-11-16T19:41:37.459Z,75.48
2022-11-16T19:44:06.833Z,75.37
2022-11-16T19:46:38.528Z,75.26
2022-11-16T19:49:14.487Z,75.38
2022-11-16T19:51:46.459Z,75.13
2022-11-16T19:54:16.229Z,75.09
2022-11-16T19:56:51.979Z,75.19
2022-11-16T19:59:24.336Z,75.16
2022-11-16T20:01:53.593Z,75.08
2022-11-16T20:04:23.082Z,74.93
2022-11-16T20:06:52.286Z,74.66
2022-11-16T20:09:21.310Z,74.57
2022-11-16T20:11:50.749Z,74.54
2022-11-16T20:14:20.225Z,74.57
2022-11-16T20:16:51.455Z,74.71
2022-11-16T20:19:21.913Z,74.72
2022-11-16T20:21:51.196Z,74.78
2022-11-16T20:24:20.473Z,74.85
2022-11-16T20:26:50.888Z,74.64
2022-11-16T20:29:21.513Z,74.62
2022-11-16T20:31:50.979Z,74.83
2022-11-16T20:34:21.793Z,74.47
2022-11-16T20:36:51.947Z,74.41
2022-11-16T20:39:22.853Z,74.59
2022-11-16T20:41:52.200Z,74.59
2022-11-16T20:44:23.303Z,74.41
2022-11-16T20:46:55.557Z,74.45
2022-11-16T20:49:25.001Z,74.28
2022-11-16T20:51:54.296Z,74.36
2022-11-16T20:54:25.474Z,74.31
2022-11-16T20:56:54.797Z,74.27
2022-11-16T20:59:24.099Z,74.34
2022-11-16T21:01:56.380Z,74.34
2022-11-16T21:04:25.591Z,74.37
2022-11-16T21:06:54.698Z,74.08
2022-11-16T21:09:24.322Z,73.93
2022-11-16T21:12:12.080Z,74.01
2022-11-16T21:14:41.384Z,73.84
2022-11-16T21:17:10.893Z,73.86
2022-11-16T21:19:49.869Z,73.70
2022-11-16T21:22:32.742Z,73.65
2022-11-16T21:25:01.994Z,73.47
2022-11-16T21:27:31.008Z,73.40
2022-11-16T21:30:00.104Z,73.30
2022-11-16T21:32:29.856Z,73.31
2022-11-16T21:34:58.870Z,73.46
2022-11-16T21:37:28.124Z,73.46
2022-11-16T21:39:57.235Z,73.39
2022-11-16T21:42:26.522Z,73.33
2022-11-16T21:44:55.731Z,73.22
2022-11-16T21:47:24.899Z,73.05
2022-11-16T21:50:24.853Z,72.98
2022-11-16T21:52:43.886Z,72.86
2022-11-16T21:55:13.085Z,72.88
2022-11-16T21:57:42.192Z,72.78
2022-11-16T22:00:16.151Z,72.91
2022-11-16T22:02:45.124Z,72.94
2022-11-16T22:05:32.488Z,72.81
2022-11-16T22:08:08.543Z,72.83
2022-11-16T22:10:37.691Z,72.69
2022-11-16T22:13:07.834Z,72.61
2022-11-16T22:15:36.935Z,72.56
2022-11-16T22:18:06.310Z,72.62
2022-11-16T22:20:38.133Z,72.54
2022-11-16T22:23:07.609Z,72.36
2022-11-16T22:25:38.466Z,72.42
2022-11-16T22:28:24.956Z,72.51
2022-11-16T22:31:06.116Z,72.53
2022-11-16T22:33:36.229Z,72.59
2022-11-16T22:36:06.276Z,72.61
2022-11-16T22:38:36.354Z,72.75
2022-11-16T22:41:06.081Z,72.99
2022-11-16T22:43:36.936Z,73.06
2022-11-16T22:46:07.949Z,73.16
2022-11-16T22:48:43.176Z,73.25
2022-11-16T22:51:27.285Z,73.34
2022-11-16T22:54:03.314Z,73.61
2022-11-16T22:56:35.099Z,73.90
2022-11-16T22:59:04.315Z,74.18
2022-11-16T23:01:34.152Z,74.36
2022-11-16T23:04:03.414Z,74.67
2022-11-16T23:06:32.983Z,74.92
2022-11-16T23:09:02.175Z,75.10
2022-11-16T23:11:49.449Z,75.10
2022-11-16T23:14:37.828Z,75.18
2022-11-16T23:17:08.634Z,75.12
2022-11-16T23:19:55.862Z,75.28
2022-11-16T23:22:43.312Z,75.52
2022-11-16T23:25:32.084Z,75.55
2022-11-16T23:28:11.165Z,75.51
2022-11-16T23:30:41.141Z,76.10
2022-11-16T23:33:12.217Z,76.33
2022-11-16T23:35:41.236Z,76.44
2022-11-16T23:38:11.017Z,76.37
2022-11-16T23:40:42.019Z,76.61
2022-11-16T23:43:31.118Z,76.86
2022-11-16T23:46:00.102Z,76.98
2022-11-16T23:48:29.273Z,77.09
2022-11-16T23:50:58.289Z,77.21
2022-11-16T23:53:27.507Z,77.29
2022-11-16T23:56:05.734Z,77.16
2022-11-16T23:58:35.474Z,77.02
